createdAt,value
2023-11-02T00:00:39.495Z,0.83
2023-11-02T00:03:13.058Z,1.30
2023-11-02T00:06:02.386Z,0.93
2023-11-02T00:09:08.063Z,0.80
2023-11-02T00:12:07.555Z,0.70
2023-11-02T00:14:47.466Z,0.80
2023-11-02T00:17:49.150Z,0.80
2023-11-02T00:20:34.728Z,0.90
2023-11-02T00:23:03.145Z,0.80
2023-11-02T00:25:57.776Z,0.90
2023-11-02T00:28:32.414Z,0.73
2023-11-02T00:31:04.401Z,0.80
2023-11-02T00:33:31.295Z,0.80
2023-11-02T00:35:58.174Z,0.70
2023-11-02T00:38:28.521Z,0.80
2023-11-02T00:40:59.086Z,0.70
2023-11-02T00:43:26.679Z,0.70
2023-11-02T00:45:53.898Z,0.70
2023-11-02T00:48:23.553Z,0.70
2023-11-02T00:51:15.349Z,0.70
2023-11-02T00:53:44.948Z,0.90
2023-11-02T00:56:12.877Z,0.70
2023-11-02T00:58:45.937Z,0.80
2023-11-02T01:01:13.369Z,0.87
2023-11-02T01:03:47.013Z,0.80
2023-11-02T01:06:27.493Z,0.80
2023-11-02T01:08:56.628Z,0.80
2023-11-02T01:11:28.582Z,0.90
2023-11-02T01:13:56.227Z,0.73
2023-11-02T01:16:23.005Z,0.80
2023-11-02T01:18:49.825Z,1.07
2023-11-02T01:21:17.154Z,0.80
2023-11-02T01:23:43.948Z,0.70
2023-11-02T01:26:40.272Z,0.70
2023-11-02T01:29:06.962Z,0.80
2023-11-02T01:31:35.837Z,0.83
2023-11-02T01:34:04.139Z,0.83
2023-11-02T01:36:35.379Z,0.80
2023-11-02T01:39:14.596Z,1.00
2023-11-02T01:41:48.388Z,0.90
2023-11-02T01:44:22.438Z,0.90
2023-11-02T01:47:26.169Z,0.87
2023-11-02T01:50:22.600Z,0.70
2023-11-02T01:52:55.474Z,0.67
2023-11-02T01:56:06.178Z,0.80
2023-11-02T01:59:01.381Z,0.77
2023-11-02T02:01:34.022Z,0.80
2023-11-02T02:04:31.424Z,0.60
2023-11-02T02:07:06.706Z,0.93
2023-11-02T02:09:42.339Z,0.90
2023-11-02T02:12:19.157Z,0.70
2023-11-02T02:15:24.085Z,0.70
2023-11-02T02:18:00.170Z,0.70
2023-11-02T02:20:33.981Z,0.70
2023-11-02T02:23:24.357Z,0.80
2023-11-02T02:26:18.457Z,0.90
2023-11-02T02:28:57.143Z,0.80
2023-11-02T02:31:42.095Z,0.90
2023-11-02T02:34:15.727Z,0.70
2023-11-02T02:37:03.949Z,1.00
2023-11-02T02:39:35.941Z,0.80
2023-11-02T02:42:04.863Z,1.00
2023-11-02T02:44:32.727Z,0.90
2023-11-02T02:47:03.442Z,0.90
2023-11-02T02:49:36.783Z,0.90
2023-11-02T02:52:05.557Z,0.90
2023-11-02T02:54:33.364Z,0.70
2023-11-02T02:57:01.814Z,0.60
2023-11-02T02:59:29.507Z,0.80
2023-11-02T03:01:57.678Z,0.87
2023-11-02T03:04:24.772Z,1.00
2023-11-02T03:06:55.023Z,0.67
2023-11-02T03:09:22.818Z,0.87
2023-11-02T03:11:56.431Z,0.73
2023-11-02T03:14:23.687Z,0.90
2023-11-02T03:16:57.233Z,1.00
2023-11-02T03:19:49.792Z,0.90
2023-11-02T03:22:19.247Z,0.93
2023-11-02T03:25:10.115Z,0.90
2023-11-02T03:27:40.807Z,0.90
2023-11-02T03:30:18.379Z,0.80
2023-11-02T03:33:07.877Z,0.90
2023-11-02T03:35:44.279Z,0.80
2023-11-02T03:38:27.563Z,0.70
2023-11-02T03:41:13.245Z,0.80
2023-11-02T03:44:06.970Z,0.80
2023-11-02T03:47:09.941Z,0.80
2023-11-02T03:49:52.855Z,0.90
2023-11-02T03:52:33.778Z,0.70
2023-11-02T03:55:43.486Z,0.80
2023-11-02T03:58:16.068Z,0.50
2023-11-02T04:01:14.500Z,0.90
2023-11-02T04:03:45.124Z,0.80
2023-11-02T04:06:20.513Z,0.80
2023-11-02T04:08:50.345Z,0.97
2023-11-02T04:11:30.349Z,0.70
2023-11-02T04:14:17.390Z,0.90
2023-11-02T04:16:44.205Z,1.03
2023-11-02T04:19:10.965Z,0.90
2023-11-02T04:21:37.720Z,0.70
2023-11-02T04:24:04.633Z,0.80
2023-11-02T04:26:32.851Z,0.77
2023-11-02T04:29:00.067Z,0.80
2023-11-02T04:31:26.846Z,0.80
2023-11-02T04:33:53.825Z,0.90
2023-11-02T04:36:20.596Z,0.70
2023-11-02T04:38:50.417Z,0.60
2023-11-02T04:41:17.170Z,0.60
2023-11-02T04:43:44.289Z,1.00
2023-11-02T04:46:11.098Z,0.80
2023-11-02T04:48:37.934Z,0.70
2023-11-02T04:51:05.076Z,0.87
2023-11-02T04:53:31.777Z,0.70
2023-11-02T04:55:58.445Z,0.70
2023-11-02T04:58:25.094Z,0.70
2023-11-02T05:00:51.814Z,0.83
2023-11-02T05:03:18.558Z,0.50
2023-11-02T05:05:45.623Z,0.67
2023-11-02T05:08:12.357Z,0.83
2023-11-02T05:10:39.053Z,0.70
2023-11-02T05:13:05.802Z,0.77
2023-11-02T05:15:32.540Z,0.70
2023-11-02T05:17:59.419Z,0.80
2023-11-02T05:20:26.489Z,0.90
2023-11-02T05:22:53.218Z,0.67
2023-11-02T05:25:20.445Z,0.80
2023-11-02T05:27:47.368Z,0.70
2023-11-02T05:30:14.185Z,0.80
2023-11-02T05:32:40.927Z,0.70
2023-11-02T05:35:10.471Z,0.73
2023-11-02T05:37:37.472Z,0.83
2023-11-02T05:40:04.551Z,0.80
2023-11-02T05:42:31.297Z,0.70
2023-11-02T05:44:58.128Z,0.90
2023-11-02T05:47:24.852Z,0.80
2023-11-02T05:49:53.184Z,0.77
2023-11-02T05:52:20.103Z,0.80
2023-11-02T05:54:47.382Z,1.00
2023-11-02T05:57:15.826Z,0.90
2023-11-02T05:59:42.732Z,0.80
2023-11-02T06:02:11.072Z,1.00
2023-11-02T06:04:38.047Z,0.90
2023-11-02T06:07:05.050Z,1.00
2023-11-02T06:09:32.720Z,0.97
2023-11-02T06:11:59.480Z,0.93
2023-11-02T06:14:26.378Z,1.20
2023-11-02T06:16:53.065Z,1.10
2023-11-02T06:19:19.742Z,0.80
2023-11-02T06:21:46.439Z,0.80
2023-11-02T06:24:13.168Z,0.90
2023-11-02T06:26:40.289Z,0.80
2023-11-02T06:29:06.976Z,0.70
2023-11-02T06:31:33.637Z,0.90
2023-11-02T06:34:00.375Z,0.90
2023-11-02T06:36:27.623Z,0.87
2023-11-02T06:38:54.332Z,0.90
2023-11-02T06:41:21.403Z,0.90
2023-11-02T06:43:50.136Z,0.80
2023-11-02T06:46:16.964Z,1.00
2023-11-02T06:48:43.898Z,0.83
2023-11-02T06:51:10.626Z,0.93
2023-11-02T06:53:37.424Z,1.00
2023-11-02T06:56:04.663Z,1.00
2023-11-02T06:58:31.349Z,0.70
2023-11-02T07:00:58.048Z,0.90
2023-11-02T07:03:24.985Z,0.90
2023-11-02T07:05:51.726Z,0.90
2023-11-02T07:08:18.414Z,0.77
2023-11-02T07:10:45.096Z,0.90
2023-11-02T07:13:13.470Z,0.70
2023-11-02T07:15:41.096Z,0.83
2023-11-02T07:18:08.038Z,1.03
2023-11-02T07:20:34.813Z,0.70
2023-11-02T07:23:01.476Z,1.10
2023-11-02T07:25:28.200Z,1.10
2023-11-02T07:27:54.913Z,0.93
2023-11-02T07:30:21.719Z,0.80
2023-11-02T07:32:48.589Z,1.00
2023-11-02T07:35:15.309Z,0.83
2023-11-02T07:37:42.783Z,0.80
2023-11-02T07:40:10.063Z,1.00
2023-11-02T07:42:36.811Z,1.00
2023-11-02T07:45:03.760Z,1.00
2023-11-02T07:47:31.255Z,1.03
2023-11-02T07:49:57.963Z,0.87
2023-11-02T07:52:24.669Z,0.90
2023-11-02T07:54:51.497Z,1.03
2023-11-02T07:57:19.387Z,0.90
2023-11-02T07:59:46.753Z,1.17
2023-11-02T08:02:13.544Z,1.00
2023-11-02T08:04:40.985Z,0.93
2023-11-02T08:07:09.261Z,0.90
2023-11-02T08:09:36.996Z,1.00
2023-11-02T08:12:04.703Z,1.20
2023-11-02T08:14:31.367Z,1.17
2023-11-02T08:16:58.218Z,1.00
2023-11-02T08:19:25.354Z,1.10
2023-11-02T08:21:52.085Z,1.10
2023-11-02T08:24:19.433Z,0.90
2023-11-02T08:26:46.133Z,1.20
2023-11-02T08:29:12.802Z,0.90
2023-11-02T08:31:40.556Z,0.97
2023-11-02T08:34:07.343Z,1.30
2023-11-02T08:36:35.502Z,1.17
2023-11-02T08:39:03.395Z,1.30
2023-11-02T08:41:35.212Z,0.90
2023-11-02T08:44:04.360Z,1.10
2023-11-02T08:46:34.059Z,1.10
2023-11-02T08:49:01.125Z,1.23
2023-11-02T08:51:27.869Z,0.90
2023-11-02T08:53:54.967Z,1.10
2023-11-02T08:56:22.160Z,1.00
2023-11-02T08:58:53.328Z,0.90
2023-11-02T09:01:24.053Z,1.00
2023-11-02T09:03:54.030Z,1.00
2023-11-02T09:06:21.801Z,0.90
2023-11-02T09:08:51.922Z,0.77
2023-11-02T09:11:19.569Z,1.00
2023-11-02T09:13:46.610Z,1.10
2023-11-02T09:16:13.360Z,0.70
2023-11-02T09:18:42.827Z,0.80
2023-11-02T09:21:10.493Z,0.80
2023-11-02T09:23:38.532Z,1.00
2023-11-02T09:26:06.878Z,0.73
2023-11-02T09:28:35.008Z,0.77
2023-11-02T09:31:02.164Z,0.80
2023-11-02T09:33:29.178Z,0.80
2023-11-02T09:35:56.444Z,0.67
2023-11-02T09:38:23.140Z,0.80
2023-11-02T09:40:50.373Z,0.80
2023-11-02T09:43:17.820Z,1.00
2023-11-02T09:45:44.800Z,0.87
2023-11-02T09:48:13.705Z,1.00
2023-11-02T09:50:40.607Z,0.90
2023-11-02T09:53:08.491Z,0.80
2023-11-02T09:55:38.996Z,0.97
2023-11-02T09:58:07.496Z,0.70
2023-11-02T10:00:34.324Z,0.87
2023-11-02T10:03:01.179Z,0.80
2023-11-02T10:05:28.034Z,1.03
2023-11-02T10:07:54.825Z,1.00
2023-11-02T10:10:22.793Z,1.07
2023-11-02T10:12:49.647Z,0.93
2023-11-02T10:15:18.362Z,0.90
2023-11-02T10:17:45.787Z,1.00
2023-11-02T10:20:14.888Z,0.73
2023-11-02T10:22:43.693Z,1.00
2023-11-02T10:25:14.893Z,0.80
2023-11-02T10:27:52.014Z,0.80
2023-11-02T10:30:19.410Z,0.90
2023-11-02T10:32:46.687Z,0.67
2023-11-02T10:35:13.492Z,1.00
2023-11-02T10:37:40.803Z,0.70
2023-11-02T10:40:08.156Z,0.80
2023-11-02T10:42:35.160Z,0.80
2023-11-02T10:45:04.447Z,0.80
2023-11-02T10:47:31.792Z,0.80
2023-11-02T10:50:00.709Z,0.70
2023-11-02T10:52:39.878Z,0.60
2023-11-02T10:55:29.838Z,0.70
2023-11-02T10:57:57.500Z,0.57
2023-11-02T11:00:27.762Z,0.63
2023-11-02T11:02:54.750Z,0.70
2023-11-02T11:05:24.369Z,0.70
2023-11-02T11:07:57.377Z,0.60
2023-11-02T11:10:24.099Z,0.63
2023-11-02T11:12:51.909Z,0.50
2023-11-02T11:15:20.594Z,0.60
2023-11-02T11:17:48.038Z,0.60
2023-11-02T11:20:17.267Z,0.43
2023-11-02T11:22:47.056Z,0.60
2023-11-02T11:25:15.149Z,0.40
2023-11-02T11:27:42.640Z,0.50
2023-11-02T11:30:34.743Z,0.63
2023-11-02T11:33:02.869Z,0.50
2023-11-02T11:35:29.695Z,0.60
2023-11-02T11:37:56.494Z,0.50
2023-11-02T11:40:26.483Z,0.50
2023-11-02T11:42:53.382Z,0.47
2023-11-02T11:45:28.521Z,0.47
2023-11-02T11:47:55.382Z,0.50
2023-11-02T11:50:35.384Z,0.40
2023-11-02T11:53:19.703Z,0.40
2023-11-02T11:55:51.116Z,0.50
2023-11-02T11:58:20.301Z,0.47
2023-11-02T12:00:50.014Z,0.40
2023-11-02T12:03:35.496Z,0.40
2023-11-02T12:06:03.850Z,0.60
2023-11-02T12:08:32.903Z,0.30
2023-11-02T12:11:01.085Z,0.57
2023-11-02T12:13:28.525Z,0.30
2023-11-02T12:15:58.359Z,0.63
2023-11-02T12:18:26.699Z,0.43
2023-11-02T12:20:53.434Z,0.63
2023-11-02T12:23:21.799Z,0.60
2023-11-02T12:25:52.534Z,0.50
2023-11-02T12:28:19.238Z,0.57
2023-11-02T12:30:46.251Z,0.50
2023-11-02T12:33:23.448Z,0.60
2023-11-02T12:35:56.628Z,0.60
2023-11-02T12:38:45.083Z,0.60
2023-11-02T12:41:26.785Z,0.67
2023-11-02T12:44:15.568Z,0.67
2023-11-02T12:46:44.063Z,0.70
2023-11-02T12:49:28.162Z,0.43
2023-11-02T12:51:54.953Z,0.70
2023-11-02T12:54:22.642Z,0.60
2023-11-02T12:56:51.283Z,0.40
2023-11-02T12:59:18.244Z,0.70
2023-11-02T13:01:54.875Z,0.57
2023-11-02T13:04:24.266Z,0.60
2023-11-02T13:06:55.072Z,0.50
2023-11-02T13:09:23.881Z,0.60
2023-11-02T13:11:54.932Z,0.60
2023-11-02T13:14:24.477Z,0.60
2023-11-02T13:16:52.518Z,0.70
2023-11-02T13:19:20.242Z,0.77
2023-11-02T13:21:53.712Z,0.40
2023-11-02T13:24:20.902Z,0.60
2023-11-02T13:26:48.789Z,0.50
2023-11-02T13:29:17.505Z,0.47
2023-11-02T13:31:46.084Z,0.50
2023-11-02T13:34:13.146Z,0.47
2023-11-02T13:36:42.265Z,0.60
2023-11-02T13:39:13.202Z,0.70
2023-11-02T13:41:42.283Z,0.47
2023-11-02T13:44:09.383Z,0.57
2023-11-02T13:46:36.491Z,0.53
2023-11-02T13:49:04.230Z,0.50
2023-11-02T13:51:32.134Z,0.50
2023-11-02T13:53:58.947Z,0.43
2023-11-02T13:56:25.689Z,0.40
2023-11-02T13:58:52.379Z,0.40
2023-11-02T14:01:19.658Z,0.40
2023-11-02T14:03:47.159Z,0.67
2023-11-02T14:06:15.551Z,0.50
2023-11-02T14:08:42.885Z,0.50
2023-11-02T14:11:11.752Z,0.60
2023-11-02T14:13:39.152Z,0.40
2023-11-02T14:16:07.904Z,0.60
2023-11-02T14:18:34.668Z,0.40
2023-11-02T14:21:01.795Z,0.53
2023-11-02T14:23:28.479Z,0.60
2023-11-02T14:25:56.521Z,0.37
2023-11-02T14:28:23.255Z,0.70
2023-11-02T14:30:51.188Z,0.60
2023-11-02T14:33:18.055Z,0.43
2023-11-02T14:35:45.018Z,0.43
2023-11-02T14:38:12.460Z,0.60
2023-11-02T14:40:39.356Z,0.57
2023-11-02T14:43:06.260Z,0.60
2023-11-02T14:45:33.197Z,0.50
2023-11-02T14:48:00.061Z,0.70
2023-11-02T14:50:26.840Z,0.60
2023-11-02T14:52:53.786Z,0.60
2023-11-02T14:55:20.875Z,0.47
2023-11-02T14:57:47.985Z,0.60
2023-11-02T15:00:16.283Z,0.60
2023-11-02T15:02:43.105Z,1.10
2023-11-02T15:05:13.364Z,0.90
2023-11-02T15:07:40.399Z,1.27
2023-11-02T15:10:08.190Z,1.20
2023-11-02T15:12:35.245Z,1.20
2023-11-02T15:15:03.798Z,1.20
2023-11-02T15:17:31.098Z,1.07
2023-11-02T15:20:04.812Z,1.10
2023-11-02T15:22:33.890Z,1.17
2023-11-02T15:25:02.045Z,1.00
2023-11-02T15:27:30.564Z,1.20
2023-11-02T15:29:58.349Z,1.00
2023-11-02T15:32:25.078Z,1.07
2023-11-02T15:34:55.948Z,1.00
2023-11-02T15:37:24.028Z,1.07
2023-11-02T15:39:50.820Z,1.07
2023-11-02T15:42:18.262Z,1.00
2023-11-02T15:44:45.207Z,1.07
2023-11-02T15:47:18.394Z,0.80
2023-11-02T15:49:45.634Z,1.50
2023-11-02T15:52:15.792Z,1.00
2023-11-02T15:54:43.169Z,0.97
2023-11-02T15:57:12.578Z,0.90
2023-11-02T15:59:40.586Z,0.90
2023-11-02T16:02:14.053Z,0.90
2023-11-02T16:04:43.978Z,0.90
2023-11-02T16:07:11.852Z,1.00
2023-11-02T16:09:38.764Z,0.80
2023-11-02T16:12:10.411Z,0.83
2023-11-02T16:14:38.215Z,0.80
2023-11-02T16:17:05.126Z,0.70
2023-11-02T16:19:33.768Z,0.70
2023-11-02T16:22:01.043Z,0.70
2023-11-02T16:24:28.477Z,0.80
2023-11-02T16:26:55.334Z,0.80
2023-11-02T16:29:22.865Z,0.80
2023-11-02T16:31:50.249Z,0.70
2023-11-02T16:34:30.425Z,0.63
2023-11-02T16:37:03.422Z,0.80
2023-11-02T16:39:31.129Z,0.70
2023-11-02T16:42:02.309Z,0.77
2023-11-02T16:44:29.558Z,0.90
2023-11-02T16:46:58.826Z,0.73
2023-11-02T16:49:25.612Z,0.70
2023-11-02T16:51:53.468Z,0.60
2023-11-02T16:54:23.437Z,0.67
2023-11-02T16:56:50.330Z,0.70
2023-11-02T16:59:17.943Z,0.70
2023-11-02T17:01:44.962Z,0.70
2023-11-02T17:04:12.989Z,0.77
2023-11-02T17:06:39.882Z,0.50
2023-11-02T17:09:07.493Z,0.60
2023-11-02T17:11:34.226Z,0.60
2023-11-02T17:14:01.039Z,0.70
2023-11-02T17:16:27.807Z,0.80
2023-11-02T17:18:54.605Z,0.70
2023-11-02T17:21:27.131Z,0.80
2023-11-02T17:23:57.939Z,0.53
2023-11-02T17:26:27.978Z,0.60
2023-11-02T17:28:55.079Z,0.80
2023-11-02T17:31:22.017Z,0.60
2023-11-02T17:33:49.079Z,0.63
2023-11-02T17:36:15.896Z,0.53
2023-11-02T17:38:42.595Z,0.70
2023-11-02T17:41:09.356Z,0.60
2023-11-02T17:43:37.952Z,0.80
2023-11-02T17:46:05.157Z,0.70
2023-11-02T17:48:32.130Z,0.70
2023-11-02T17:51:01.260Z,0.70
2023-11-02T17:53:28.633Z,0.80
2023-11-02T17:55:55.386Z,0.60
2023-11-02T17:58:23.150Z,0.80
2023-11-02T18:00:51.040Z,0.90
2023-11-02T18:03:17.780Z,0.70
2023-11-02T18:05:44.461Z,0.90
2023-11-02T18:08:12.081Z,0.77
2023-11-02T18:10:39.272Z,1.10
2023-11-02T18:13:06.125Z,1.23
2023-11-02T18:15:33.147Z,1.50
2023-11-02T18:18:00.032Z,2.10
2023-11-02T18:20:27.066Z,1.80
2023-11-02T18:22:53.762Z,1.50
2023-11-02T18:25:20.726Z,1.53
2023-11-02T18:27:48.591Z,1.33
2023-11-02T18:30:15.646Z,1.40
2023-11-02T18:32:42.562Z,1.30
2023-11-02T18:35:10.268Z,1.20
2023-11-02T18:37:38.399Z,1.10
2023-11-02T18:40:06.267Z,1.10
2023-11-02T18:42:33.195Z,1.20
2023-11-02T18:44:59.998Z,1.20
2023-11-02T18:47:26.661Z,1.00
2023-11-02T18:49:56.090Z,0.97
2023-11-02T18:52:22.939Z,1.00
2023-11-02T18:54:53.132Z,1.20
2023-11-02T18:57:19.883Z,0.90
2023-11-02T18:59:46.583Z,1.20
2023-11-02T19:02:13.920Z,1.40
2023-11-02T19:04:40.628Z,1.30
2023-11-02T19:07:07.423Z,1.30
2023-11-02T19:09:34.209Z,1.20
2023-11-02T19:12:00.973Z,1.33
2023-11-02T19:14:28.005Z,1.07
2023-11-02T19:16:55.517Z,1.20
2023-11-02T19:19:22.311Z,1.27
2023-11-02T19:21:49.535Z,1.33
2023-11-02T19:24:16.981Z,1.27
2023-11-02T19:26:45.153Z,1.10
2023-11-02T19:29:12.637Z,1.03
2023-11-02T19:31:44.508Z,1.03
2023-11-02T19:34:12.120Z,1.10
2023-11-02T19:36:53.243Z,1.20
2023-11-02T19:39:20.656Z,1.37
2023-11-02T19:41:49.389Z,1.10
2023-11-02T19:44:16.701Z,1.10
2023-11-02T19:46:46.331Z,1.30
2023-11-02T19:49:13.962Z,1.17
2023-11-02T19:51:41.566Z,1.30
2023-11-02T19:54:10.585Z,1.10
2023-11-02T19:56:40.895Z,1.10
2023-11-02T19:59:11.094Z,1.00
2023-11-02T20:01:42.246Z,1.10
2023-11-02T20:04:09.534Z,1.00
2023-11-02T20:06:37.514Z,1.10
2023-11-02T20:09:05.418Z,1.10
2023-11-02T20:11:33.270Z,1.27
2023-11-02T20:13:59.987Z,1.10
2023-11-02T20:16:26.693Z,1.10
2023-11-02T20:18:53.675Z,1.10
2023-11-02T20:21:25.363Z,1.13
2023-11-02T20:23:53.287Z,1.13
2023-11-02T20:26:20.765Z,0.93
2023-11-02T20:28:47.567Z,1.10
2023-11-02T20:31:14.446Z,0.93
2023-11-02T20:33:42.504Z,1.10
2023-11-02T20:36:09.389Z,1.13
2023-11-02T20:38:36.253Z,1.00
2023-11-02T20:41:05.281Z,1.10
2023-11-02T20:43:32.224Z,1.10
2023-11-02T20:45:59.025Z,1.00
2023-11-02T20:48:26.461Z,0.97
2023-11-02T20:50:53.405Z,1.00
2023-11-02T20:53:20.280Z,1.00
2023-11-02T20:55:46.997Z,0.97
2023-11-02T20:58:13.820Z,0.90
2023-11-02T21:00:50.252Z,0.70
2023-11-02T21:03:22.400Z,0.77
2023-11-02T21:05:49.301Z,0.80
2023-11-02T21:08:16.088Z,0.70
2023-11-02T21:10:43.084Z,0.80
2023-11-02T21:13:10.585Z,0.80
2023-11-02T21:15:37.382Z,0.70
2023-11-02T21:18:04.214Z,1.00
2023-11-02T21:20:31.042Z,1.07
2023-11-02T21:22:57.760Z,1.10
2023-11-02T21:25:24.450Z,0.90
2023-11-02T21:27:51.337Z,0.90
2023-11-02T21:30:18.169Z,1.10
2023-11-02T21:32:44.912Z,1.20
2023-11-02T21:35:11.619Z,0.90
2023-11-02T21:37:38.313Z,1.10
2023-11-02T21:40:05.674Z,1.00
2023-11-02T21:42:32.793Z,1.20
2023-11-02T21:44:59.534Z,1.00
2023-11-02T21:47:26.333Z,0.90
2023-11-02T21:49:53.064Z,1.07
2023-11-02T21:52:19.820Z,0.97
2023-11-02T21:54:46.655Z,1.00
2023-11-02T21:57:14.326Z,1.20
2023-11-02T21:59:41.197Z,1.00
2023-11-02T22:02:07.886Z,0.90
2023-11-02T22:04:34.762Z,1.00
2023-11-02T22:07:01.644Z,0.90
2023-11-02T22:09:28.438Z,0.80
2023-11-02T22:11:56.273Z,0.80
2023-11-02T22:14:23.248Z,0.90
2023-11-02T22:16:50.043Z,0.70
2023-11-02T22:19:16.932Z,0.60
2023-11-02T22:21:44.284Z,0.80
2023-11-02T22:24:11.095Z,0.80
2023-11-02T22:26:37.860Z,0.80
2023-11-02T22:29:04.736Z,0.80
2023-11-02T22:31:31.401Z,0.60
2023-11-02T22:33:58.343Z,0.63
2023-11-02T22:36:25.138Z,0.60
2023-11-02T22:38:51.815Z,0.70
2023-11-02T22:41:18.597Z,0.80
2023-11-02T22:43:45.527Z,0.70
2023-11-02T22:46:12.374Z,0.70
2023-11-02T22:48:40.789Z,0.60
2023-11-02T22:51:08.015Z,0.50
2023-11-02T22:53:35.829Z,0.50
2023-11-02T22:56:11.672Z,0.87
2023-11-02T22:58:38.833Z,0.60
2023-11-02T23:01:05.983Z,0.70
2023-11-02T23:03:34.955Z,0.73
2023-11-02T23:06:02.252Z,0.60
2023-11-02T23:08:29.390Z,0.70
2023-11-02T23:10:56.457Z,0.60
2023-11-02T23:13:23.511Z,0.53
2023-11-02T23:15:50.979Z,0.50
2023-11-02T23:18:17.959Z,0.40
2023-11-02T23:20:44.988Z,0.60
2023-11-02T23:23:12.845Z,0.60
2023-11-02T23:25:40.257Z,0.87
2023-11-02T23:28:07.473Z,0.57
2023-11-02T23:30:35.757Z,0.60
2023-11-02T23:33:02.715Z,0.80
2023-11-02T23:35:30.377Z,0.67
2023-11-02T23:37:57.248Z,0.40
2023-11-02T23:40:24.054Z,0.43
2023-11-02T23:42:51.550Z,0.63
2023-11-02T23:45:24.338Z,0.63
2023-11-02T23:47:51.983Z,0.63
2023-11-02T23:50:19.238Z,0.70
2023-11-02T23:52:46.962Z,0.80
2023-11-02T23:55:14.638Z,0.63
2023-11-02T23:57:41.892Z,0.80
